Time;durP1;ratioP1;P1;durP2;ratioP2;P2;SDS_P1;SDS_P2;PMS_P1;PMS_P2;Temp;Humidity;BMP_temperature;BMP_pressure;BME280_temperature;BME280_humidity;BME280_pressure;Samples;Min_cycle;Max_cycle;Signal;HPM_P1;HPM_P2
2022/01/27 00:01:04;;;;;;;38.85;21.00;;;5.80;99.90;;;;;;4989238;28;20171;-72
2022/01/27 00:03:39;;;;;;;38.53;20.20;;;6.10;99.90;;;;;;4973812;28;20413;-72
2022/01/27 00:06:09;;;;;;;38.67;20.30;;;5.60;99.90;;;;;;4986028;28;20053;-72
2022/01/27 00:11:11;;;;;;;40.25;19.80;;;5.90;99.90;;;;;;4987313;28;20061;-72
2022/01/27 00:13:44;;;;;;;40.03;20.50;;;5.60;99.90;;;;;;5003905;28;20133;-72
2022/01/27 00:16:18;;;;;;;35.42;18.33;;;5.60;99.90;;;;;;4996643;28;20052;-72
2022/01/27 00:18:47;;;;;;;37.13;21.13;;;5.80;99.90;;;;;;4990228;28;21054;-72
2022/01/27 00:21:14;;;;;;;42.13;20.67;;;5.90;99.90;;;;;;4990458;28;20038;-72
2022/01/27 00:23:41;;;;;;;39.08;20.58;;;5.90;99.90;;;;;;4974272;28;20103;-72
2022/01/27 00:26:08;;;;;;;43.13;22.27;;;5.70;99.90;;;;;;4990841;28;20046;-72
2022/01/27 00:28:34;;;;;;;39.30;21.13;;;5.60;99.90;;;;;;4987699;28;20091;-72
2022/01/27 00:30:59;;;;;;;37.00;20.80;;;5.80;99.90;;;;;;4981059;28;20049;-72
2022/01/27 00:33:25;;;;;;;40.78;17.88;;;5.70;99.90;;;;;;5003282;28;20034;-72
2022/01/27 00:35:51;;;;;;;40.88;21.25;;;5.70;99.90;;;;;;4974461;28;20045;-72
2022/01/27 00:38:17;;;;;;;38.03;20.55;;;5.70;99.90;;;;;;4992194;28;20038;-72
2022/01/27 00:40:44;;;;;;;40.55;21.50;;;6.10;99.90;;;;;;4975824;28;20041;-72
2022/01/27 00:43:10;;;;;;;43.90;22.42;;;6.10;99.90;;;;;;4988096;28;20045;-72
2022/01/27 00:45:36;;;;;;;36.85;15.57;;;5.60;99.90;;;;;;4982728;28;20128;-72
2022/01/27 00:48:04;;;;;;;33.85;18.85;;;5.90;99.90;;;;;;4974285;28;20121;-72
2022/01/27 00:50:35;;;;;;;40.60;20.52;;;5.60;99.90;;;;;;5002752;28;20045;-72
2022/01/27 00:53:04;;;;;;;38.15;20.60;;;5.80;99.90;;;;;;4984808;28;20069;-71
2022/01/27 00:55:36;;;;;;;37.08;21.90;;;5.80;99.90;;;;;;4991296;28;20120;-72
2022/01/27 01:01:00;;;;;;;37.45;20.52;;;5.70;99.90;;;;;;4987417;28;20050;-72
2022/01/27 01:03:40;;;;;;;;;;;5.70;99.90;;;;;;4988807;28;20046;-72
2022/01/27 01:19:21;;;;;;;37.65;20.70;;;5.90;99.90;;;;;;4988845;28;20054;-72
2022/01/27 01:35:08;;;;;;;35.10;20.85;;;6.30;99.90;;;;;;4989339;28;20161;-72
2022/01/27 01:37:40;;;;;;;36.60;19.25;;;5.70;99.90;;;;;;4988659;28;20485;-72
2022/01/27 01:40:08;;;;;;;39.58;20.00;;;6.00;99.90;;;;;;4987159;28;20814;-72
2022/01/27 01:42:34;;;;;;;37.22;19.48;;;5.60;99.90;;;;;;4989468;28;20480;-72
2022/01/27 01:45:08;;;;;;;39.53;20.75;;;5.60;99.90;;;;;;4976163;28;20049;-72
2022/01/27 01:47:35;;;;;;;37.53;20.45;;;5.50;99.90;;;;;;4990669;28;20045;-72
2022/01/27 01:50:00;;;;;;;39.97;21.05;;;5.50;99.90;;;;;;4974225;28;20045;-72
2022/01/27 01:52:26;;;;;;;35.08;19.80;;;5.60;99.90;;;;;;4970113;28;20038;-72
2022/01/27 01:54:54;;;;;;;33.65;19.65;;;5.50;99.90;;;;;;4988338;28;20390;-72
2022/01/27 01:57:20;;;;;;;35.50;19.65;;;5.70;99.90;;;;;;5005394;28;20042;-72
2022/01/27 01:59:46;;;;;;;38.38;20.85;;;5.50;99.90;;;;;;4991542;28;20030;-72
2022/01/27 02:02:15;;;;;;;34.47;18.42;;;5.60;99.90;;;;;;4970681;28;20487;-71
2022/01/27 02:04:42;;;;;;;38.35;19.20;;;5.70;99.90;;;;;;4969527;28;20177;-73
2022/01/27 02:07:22;;;;;;;28.95;14.80;;;5.90;99.90;;;;;;4983401;28;20057;-73
2022/01/27 02:18:01;;;;;;;38.00;19.52;;;5.80;99.90;;;;;;4991889;28;20073;-72
2022/01/27 02:20:33;;;;;;;37.85;20.35;;;5.30;99.90;;;;;;4974543;28;20038;-72
2022/01/27 02:22:59;;;;;;;36.25;19.90;;;5.80;99.90;;;;;;4987777;28;20033;-72
2022/01/27 02:25:25;;;;;;;26.73;14.27;;;5.70;99.90;;;;;;4972806;28;20402;-72
2022/01/27 02:27:55;;;;;;;33.20;17.77;;;5.60;99.90;;;;;;4973876;28;20056;-72
2022/01/27 02:30:22;;;;;;;38.20;19.60;;;5.90;99.90;;;;;;4991359;28;20034;-72
2022/01/27 02:32:52;;;;;;;38.58;19.83;;;5.50;99.90;;;;;;4990536;28;20034;-72
2022/01/27 02:35:24;;;;;;;35.20;19.83;;;5.40;99.90;;;;;;4974111;28;20057;-72
2022/01/27 02:37:51;;;;;;;31.25;16.63;;;5.60;99.90;;;;;;4990343;28;20038;-72
2022/01/27 02:40:34;;;;;;;35.63;17.13;;;5.60;99.90;;;;;;4970175;28;20041;-72
2022/01/27 02:43:02;;;;;;;31.83;18.00;;;5.80;99.90;;;;;;4972838;28;20408;-72
2022/01/27 02:45:31;;;;;;;33.40;19.42;;;5.50;99.90;;;;;;4992080;28;20041;-72
2022/01/27 02:47:57;;;;;;;33.33;18.25;;;5.50;99.90;;;;;;4991228;28;20077;-72
2022/01/27 02:50:23;;;;;;;39.40;20.83;;;5.60;99.90;;;;;;4973033;28;20108;-72
2022/01/27 02:52:48;;;;;;;31.77;15.48;;;5.70;99.90;;;;;;4990631;28;20048;-72
2022/01/27 02:55:14;;;;;;;33.53;17.65;;;5.90;99.90;;;;;;4957542;28;20038;-72
2022/01/27 02:57:40;;;;;;;36.95;19.90;;;5.80;99.90;;;;;;4992355;28;20072;-72
2022/01/27 03:00:07;;;;;;;37.33;19.48;;;5.60;99.90;;;;;;4987130;28;20042;-72
2022/01/27 03:02:34;;;;;;;34.35;18.52;;;5.50;99.90;;;;;;4989458;28;20083;-72
2022/01/27 03:05:00;;;;;;;33.25;18.40;;;5.90;99.90;;;;;;4972951;28;20046;-72
2022/01/27 03:07:26;;;;;;;39.40;19.95;;;5.60;99.90;;;;;;4988641;28;20120;-72
2022/01/27 03:09:54;;;;;;;38.70;20.67;;;5.70;99.90;;;;;;4983716;28;20033;-72
2022/01/27 03:12:23;;;;;;;38.95;21.17;;;6.20;99.90;;;;;;4988305;28;20050;-72
2022/01/27 03:14:49;;;;;;;35.28;21.50;;;5.70;99.90;;;;;;4990774;28;20042;-73
2022/01/27 03:17:15;;;;;;;36.78;20.63;;;5.90;99.90;;;;;;4974171;28;20512;-73
2022/01/27 03:19:42;;;;;;;30.90;16.98;;;5.70;99.90;;;;;;4990735;28;20076;-73
2022/01/27 03:22:08;;;;;;;34.28;20.75;;;5.60;99.90;;;;;;4992760;28;20065;-72
2022/01/27 03:24:35;;;;;;;33.67;19.48;;;6.10;99.90;;;;;;4988622;28;20049;-71
2022/01/27 03:27:01;;;;;;;40.95;22.98;;;5.80;99.90;;;;;;4988205;28;20066;-71
2022/01/27 03:29:28;;;;;;;35.67;18.83;;;5.50;99.90;;;;;;4988251;28;20080;-71
2022/01/27 03:31:54;;;;;;;35.58;19.17;;;6.30;99.90;;;;;;4989752;28;20452;-71
2022/01/27 03:34:21;;;;;;;41.67;21.67;;;6.30;99.90;;;;;;4985813;28;20549;-71
2022/01/27 03:36:46;;;;;;;42.08;22.10;;;5.50;99.90;;;;;;4988304;28;20048;-71
2022/01/27 03:39:16;;;;;;;41.28;20.70;;;5.50;99.90;;;;;;4988355;28;20046;-71
2022/01/27 03:41:49;;;;;;;41.85;19.85;;;5.80;99.90;;;;;;4986893;28;20064;-71
2022/01/27 03:44:23;;;;;;;30.10;15.73;;;5.90;99.90;;;;;;1531258;28;10022843;-71
2022/01/27 03:46:50;;;;;;;38.72;19.33;;;5.90;99.90;;;;;;3437836;28;10001533;-71
2022/01/27 03:49:16;;;;;;;45.17;21.67;;;5.70;99.90;;;;;;4990274;28;20041;-71
2022/01/27 03:51:44;;;;;;;32.17;16.67;;;6.20;99.90;;;;;;4985834;28;20109;-71
2022/01/27 03:54:10;;;;;;;36.30;16.42;;;5.70;99.90;;;;;;5005358;28;20038;-72
2022/01/27 03:56:36;;;;;;;38.22;21.15;;;5.80;99.90;;;;;;4990117;28;20390;-72
2022/01/27 03:59:02;;;;;;;36.42;20.70;;;5.80;99.90;;;;;;4975639;28;20045;-71
2022/01/27 04:01:28;;;;;;;38.10;21.60;;;5.60;99.90;;;;;;4985735;28;20053;-71
2022/01/27 04:03:57;;;;;;;39.22;19.33;;;5.80;99.90;;;;;;5001994;28;20065;-71
2022/01/27 04:06:32;;;;;;;40.83;20.52;;;5.50;99.90;;;;;;4985381;28;20061;-71
2022/01/27 04:08:58;;;;;;;38.50;21.08;;;6.00;99.90;;;;;;4967906;28;21509;-71
2022/01/27 04:11:24;;;;;;;40.10;20.70;;;5.60;99.90;;;;;;4987055;28;20053;-71
2022/01/27 04:13:49;;;;;;;41.33;20.40;;;5.70;99.90;;;;;;4983508;28;20038;-71
2022/01/27 04:16:15;;;;;;;38.15;21.13;;;5.40;99.90;;;;;;4970027;28;20037;-71
2022/01/27 04:18:41;;;;;;;32.55;18.08;;;5.50;99.90;;;;;;4970937;28;20474;-71
2022/01/27 04:21:06;;;;;;;31.80;17.10;;;5.50;99.90;;;;;;4968532;28;20046;-71
2022/01/27 04:23:32;;;;;;;36.25;19.00;;;5.70;99.90;;;;;;4990420;28;20129;-71
2022/01/27 04:25:58;;;;;;;34.58;16.90;;;5.50;99.90;;;;;;4971131;28;20044;-71
2022/01/27 04:28:30;;;;;;;33.70;18.48;;;5.90;99.90;;;;;;4988299;28;20116;-71
2022/01/27 04:30:58;;;;;;;35.20;20.40;;;5.60;99.90;;;;;;4985518;28;20038;-71
2022/01/27 04:33:27;;;;;;;46.25;21.75;;;6.00;99.90;;;;;;4972761;28;20072;-71
2022/01/27 04:35:57;;;;;;;41.05;20.90;;;5.90;99.90;;;;;;4970249;28;20093;-72
2022/01/27 04:41:29;;;;;;;36.90;21.63;;;5.70;99.90;;;;;;4953311;28;20136;-73
2022/01/27 04:47:01;;;;;;;38.15;21.67;;;5.90;99.90;;;;;;4944325;28;20054;-72
2022/01/27 04:49:27;;;;;;;37.90;21.30;;;5.70;99.90;;;;;;4985770;28;20034;-72
2022/01/27 04:51:53;;;;;;;37.88;22.67;;;5.70;99.90;;;;;;4986347;28;20326;-72
2022/01/27 04:56:44;;;;;;;38.58;22.42;;;5.80;99.90;;;;;;5005424;28;20049;-72
2022/01/27 04:59:44;;;;;;;34.75;16.25;;;5.90;99.90;;;;;;4990405;28;20041;-72
2022/01/27 05:02:07;;;;;;;40.60;20.48;;;5.80;99.90;;;;;;4985648;28;20501;-72
2022/01/27 05:04:38;;;;;;;43.00;21.67;;;5.70;99.90;;;;;;4991973;28;20057;-72
2022/01/27 05:07:04;;;;;;;;;;;6.10;99.90;;;;;;4989017;28;20103;-72
2022/01/27 05:09:30;;;;;;;42.35;19.35;;;5.60;99.90;;;;;;4994203;28;20781;-72
2022/01/27 05:12:08;;;;;;;23.67;11.82;;;5.60;99.90;;;;;;4990775;28;20034;-72
2022/01/27 05:14:33;;;;;;;35.28;19.80;;;5.80;99.90;;;;;;4996018;28;20049;-72
2022/01/27 05:16:59;;;;;;;37.38;18.63;;;5.60;99.90;;;;;;4992166;28;20041;-72
2022/01/27 05:19:25;;;;;;;38.22;21.17;;;5.70;99.90;;;;;;4979198;28;20075;-72
2022/01/27 05:21:50;;;;;;;40.78;19.45;;;5.80;99.90;;;;;;4990975;28;20042;-72
2022/01/27 05:24:17;;;;;;;40.38;22.27;;;5.80;99.90;;;;;;4988519;28;20519;-72
2022/01/27 05:26:43;;;;;;;34.83;18.45;;;5.60;99.90;;;;;;4988765;28;20068;-72
2022/01/27 05:29:09;;;;;;;42.35;21.70;;;6.10;99.90;;;;;;4989944;28;20054;-72
2022/01/27 05:31:36;;;;;;;39.75;19.63;;;5.80;99.90;;;;;;4993821;28;20561;-72
2022/01/27 05:34:03;;;;;;;38.85;20.65;;;6.10;99.90;;;;;;4988245;28;20041;-72
2022/01/27 05:36:29;;;;;;;39.63;19.63;;;6.10;99.90;;;;;;4991873;28;20038;-72
2022/01/27 05:38:54;;;;;;;36.13;20.05;;;6.00;99.90;;;;;;4989728;28;20473;-72
2022/01/27 05:41:20;;;;;;;32.53;16.10;;;5.80;99.90;;;;;;4989273;28;20483;-71
2022/01/27 05:43:46;;;;;;;43.53;20.80;;;6.10;99.90;;;;;;4983718;28;20041;-71
2022/01/27 05:46:11;;;;;;;42.42;19.48;;;5.90;99.90;;;;;;4967993;28;20116;-72
2022/01/27 05:48:37;;;;;;;48.47;21.63;;;5.70;99.90;;;;;;4958165;28;20046;-72
2022/01/27 05:51:03;;;;;;;50.03;23.20;;;6.40;99.90;;;;;;4980899;28;20125;-71
2022/01/27 05:53:32;;;;;;;43.65;23.45;;;5.90;99.90;;;;;;1329440;28;10022612;-71
2022/01/27 05:55:58;;;;;;;40.85;22.08;;;6.10;99.90;;;;;;3446865;28;10001289;-72
2022/01/27 05:58:25;;;;;;;46.47;21.45;;;5.70;99.90;;;;;;4984040;28;20405;-72
2022/01/27 06:00:51;;;;;;;40.42;18.95;;;5.90;99.90;;;;;;4972411;28;20042;-72
2022/01/27 06:03:17;;;;;;;46.92;24.77;;;5.90;99.90;;;;;;4974489;28;20052;-72
2022/01/27 06:05:42;;;;;;;51.03;23.08;;;5.90;99.90;;;;;;5002152;28;20876;-72
2022/01/27 06:08:08;;;;;;;46.22;20.23;;;6.00;99.90;;;;;;4986527;28;20034;-72
2022/01/27 06:10:34;;;;;;;45.47;21.55;;;5.80;99.90;;;;;;4988227;28;20077;-72
2022/01/27 06:13:00;;;;;;;40.47;19.00;;;6.40;99.90;;;;;;4993118;28;20115;-72
2022/01/27 06:15:27;;;;;;;44.17;21.92;;;6.20;99.90;;;;;;4987416;28;20046;-72
2022/01/27 06:17:53;;;;;;;44.08;19.45;;;6.10;99.90;;;;;;4990983;28;20457;-72
2022/01/27 06:20:20;;;;;;;45.78;20.55;;;6.10;99.90;;;;;;4992154;28;20038;-71
2022/01/27 06:22:46;;;;;;;45.38;20.52;;;5.80;99.90;;;;;;4999853;28;20076;-71
2022/01/27 06:25:13;;;;;;;42.88;20.92;;;5.90;99.90;;;;;;4988476;28;20042;-71
2022/01/27 06:27:40;;;;;;;45.88;20.67;;;6.00;99.90;;;;;;4988061;28;20085;-71
2022/01/27 06:30:08;;;;;;;42.70;20.25;;;5.80;99.90;;;;;;4986200;28;21007;-72
2022/01/27 06:32:35;;;;;;;43.90;22.27;;;5.60;99.90;;;;;;4989290;28;20049;-71
2022/01/27 06:35:03;;;;;;;45.55;19.55;;;6.00;99.90;;;;;;4989447;28;20042;-71
2022/01/27 06:37:33;;;;;;;35.70;17.90;;;5.80;99.90;;;;;;4973688;28;20095;-72
2022/01/27 06:39:59;;;;;;;38.83;20.23;;;5.80;99.90;;;;;;5004612;28;20037;-71
2022/01/27 06:42:26;;;;;;;37.85;18.98;;;5.90;99.90;;;;;;4987895;28;20393;-71
2022/01/27 06:44:52;;;;;;;40.58;18.70;;;6.00;99.90;;;;;;4989930;28;20517;-72
2022/01/27 06:47:18;;;;;;;33.97;16.23;;;6.20;99.90;;;;;;5006367;28;20413;-71
2022/01/27 06:49:44;;;;;;;37.72;16.65;;;6.00;99.90;;;;;;4986892;28;20045;-71
2022/01/27 06:52:10;;;;;;;35.95;16.80;;;;;;;;;;5009891;28;20045;-70
2022/01/27 06:54:37;;;;;;;35.15;15.48;;;;;;;;;;4990156;28;20489;-71
2022/01/27 06:57:03;;;;;;;36.25;18.98;;;5.80;99.90;;;;;;4991754;28;20049;-71
2022/01/27 06:59:29;;;;;;;37.85;18.30;;;5.90;99.90;;;;;;4974828;28;20120;-71
2022/01/27 07:01:54;;;;;;;26.60;14.95;;;5.80;99.90;;;;;;4984137;28;20048;-72
2022/01/27 07:04:20;;;;;;;28.75;14.98;;;6.10;99.90;;;;;;4981848;28;20068;-71
2022/01/27 07:06:48;;;;;;;33.10;14.20;;;5.90;99.90;;;;;;4968913;28;20038;-71
2022/01/27 07:09:13;;;;;;;32.78;16.83;;;5.90;99.90;;;;;;4984450;28;20057;-73
2022/01/27 07:11:39;;;;;;;27.00;13.73;;;5.90;99.90;;;;;;4987759;28;20056;-72
2022/01/27 07:14:05;;;;;;;36.00;16.55;;;6.00;99.90;;;;;;4986650;28;20043;-72
2022/01/27 07:16:33;;;;;;;32.00;14.95;;;6.00;99.90;;;;;;4989298;28;20044;-72
2022/01/27 07:18:58;;;;;;;25.48;14.35;;;6.00;99.90;;;;;;4988965;28;20129;-72
2022/01/27 07:21:24;;;;;;;29.33;15.80;;;6.00;99.90;;;;;;5006280;28;20132;-72
2022/01/27 07:23:50;;;;;;;25.50;14.68;;;6.00;99.90;;;;;;4992281;28;20107;-71
2022/01/27 07:26:16;;;;;;;33.40;15.07;;;6.10;99.90;;;;;;5003192;28;20049;-71
2022/01/27 07:28:42;;;;;;;26.40;13.13;;;6.20;99.90;;;;;;5007072;28;20524;-71
2022/01/27 07:31:08;;;;;;;29.02;12.93;;;6.10;99.90;;;;;;4975074;28;20045;-71
2022/01/27 07:33:33;;;;;;;30.83;13.85;;;6.20;99.90;;;;;;4982515;28;20084;-71
2022/01/27 07:35:59;;;;;;;24.35;13.05;;;6.40;99.90;;;;;;4985152;28;20045;-71
2022/01/27 07:38:27;;;;;;;27.08;12.75;;;6.20;99.90;;;;;;4989133;28;20034;-72
2022/01/27 07:40:53;;;;;;;22.80;12.75;;;6.20;99.90;;;;;;4969355;28;20054;-72
2022/01/27 07:43:19;;;;;;;25.45;12.10;;;6.20;99.90;;;;;;4974207;28;20517;-72
2022/01/27 07:45:45;;;;;;;27.13;14.23;;;6.20;99.90;;;;;;4988677;28;20049;-72
2022/01/27 07:48:10;;;;;;;20.27;10.90;;;6.30;99.90;;;;;;4988851;28;20090;-72
2022/01/27 07:50:36;;;;;;;24.50;12.20;;;6.30;99.90;;;;;;5002066;28;20034;-72
2022/01/27 07:53:03;;;;;;;25.27;12.45;;;6.30;99.90;;;;;;4987623;28;20072;-72
2022/01/27 07:55:29;;;;;;;19.13;9.90;;;6.50;99.90;;;;;;4985522;28;20065;-72
2022/01/27 07:57:54;;;;;;;20.77;11.02;;;6.30;99.90;;;;;;4989984;28;20085;-72
2022/01/27 08:00:31;;;;;;;10.72;6.37;;;6.30;99.90;;;;;;3030703;28;10001695;-72
2022/01/27 08:02:57;;;;;;;23.63;11.00;;;6.30;99.90;;;;;;2069358;28;10002298;-71
2022/01/27 08:05:22;;;;;;;18.05;10.18;;;6.30;99.90;;;;;;4987092;28;20073;-71
2022/01/27 08:07:48;;;;;;;24.90;11.77;;;6.30;99.90;;;;;;4984699;28;20084;-72
2022/01/27 08:10:14;;;;;;;20.45;9.35;;;6.40;99.90;;;;;;4995632;28;20165;-71
2022/01/27 08:12:43;;;;;;;19.83;9.55;;;6.80;99.90;;;;;;4983610;28;20049;-71
2022/01/27 08:15:11;;;;;;;28.17;12.30;;;6.50;99.90;;;;;;4983901;28;20493;-71
2022/01/27 08:17:38;;;;;;;24.85;12.23;;;6.50;99.90;;;;;;4971289;28;20155;-71
2022/01/27 08:20:04;;;;;;;29.20;12.75;;;6.60;99.90;;;;;;5003887;28;20050;-71
2022/01/27 08:22:31;;;;;;;33.08;13.88;;;6.60;99.90;;;;;;4990021;28;20042;-71
2022/01/27 08:24:57;;;;;;;32.90;15.38;;;6.60;99.90;;;;;;4988792;28;20045;-71
2022/01/27 08:27:28;;;;;;;37.63;13.63;;;6.70;99.90;;;;;;4989619;28;20541;-71
2022/01/27 08:29:59;;;;;;;28.40;13.70;;;6.70;99.90;;;;;;4977097;28;20144;-71
2022/01/27 08:32:39;;;;;;;35.22;14.82;;;6.70;99.90;;;;;;4991821;28;20061;-71
2022/01/27 08:35:06;;;;;;;36.30;14.90;;;6.80;99.90;;;;;;4996422;28;20077;-72
2022/01/27 08:37:32;;;;;;;34.70;15.68;;;6.80;99.90;;;;;;5007452;28;20125;-72
2022/01/27 08:39:57;;;;;;;34.50;14.48;;;7.50;99.90;;;;;;4994729;28;20041;-72
2022/01/27 08:42:23;;;;;;;30.30;14.75;;;6.90;99.90;;;;;;4970614;28;20136;-72
2022/01/27 08:44:49;;;;;;;29.70;12.98;;;7.00;99.90;;;;;;5003502;28;20049;-72
2022/01/27 08:47:16;;;;;;;33.72;12.38;;;7.00;99.90;;;;;;4995468;28;20049;-72
2022/01/27 08:49:44;;;;;;;28.48;11.40;;;7.10;99.90;;;;;;4990832;28;20045;-72
2022/01/27 08:52:09;;;;;;;32.67;14.10;;;7.90;99.90;;;;;;4994668;28;20054;-72
2022/01/27 08:54:35;;;;;;;24.38;11.32;;;7.20;99.90;;;;;;4994029;28;20061;-72
2022/01/27 08:57:01;;;;;;;30.00;12.73;;;7.90;99.90;;;;;;4980324;28;20171;-72
2022/01/27 08:59:26;;;;;;;32.55;12.93;;;7.20;99.90;;;;;;4989655;28;20040;-72
2022/01/27 09:01:52;;;;;;;32.22;12.63;;;7.20;99.90;;;;;;4990801;28;20057;-72
2022/01/27 09:04:18;;;;;;;27.50;10.30;;;7.30;99.90;;;;;;4976812;28;20046;-72
2022/01/27 09:06:44;;;;;;;26.63;11.32;;;7.30;99.90;;;;;;4975478;28;20563;-71
2022/01/27 09:09:10;;;;;;;30.95;10.35;;;7.40;99.90;;;;;;5008704;28;20141;-71
2022/01/27 09:11:36;;;;;;;30.63;11.13;;;7.40;99.90;;;;;;4993296;28;20136;-71
2022/01/27 09:14:03;;;;;;;30.08;9.70;;;7.40;99.90;;;;;;4989914;28;20510;-71
2022/01/27 09:16:31;;;;;;;25.40;10.35;;;7.40;99.90;;;;;;4992165;28;20045;-72
2022/01/27 09:18:59;;;;;;;16.80;6.90;;;7.50;99.90;;;;;;4976112;28;20038;-71
2022/01/27 09:21:32;;;;;;;22.65;8.43;;;7.80;99.90;;;;;;4989236;28;20427;-71
2022/01/27 09:23:58;;;;;;;17.10;8.07;;;7.50;99.90;;;;;;4987743;28;20404;-72
2022/01/27 09:26:43;;;;;;;23.58;8.93;;;7.50;99.90;;;;;;4991871;28;20130;-71
2022/01/27 09:29:09;;;;;;;27.35;9.02;;;7.60;99.90;;;;;;5006217;28;20120;-71
2022/01/27 09:31:36;;;;;;;25.63;9.73;;;7.60;99.90;;;;;;4991867;28;20528;-71
2022/01/27 09:34:02;;;;;;;22.85;8.75;;;7.60;99.90;;;;;;4988641;28;20052;-71
2022/01/27 09:36:27;;;;;;;25.15;8.25;;;7.70;99.90;;;;;;4983069;28;20034;-71
2022/01/27 09:38:53;;;;;;;19.83;8.45;;;7.70;99.90;;;;;;4972788;28;20046;-71
2022/01/27 09:41:20;;;;;;;20.00;7.80;;;7.70;99.90;;;;;;4989820;28;20410;-71
2022/01/27 09:43:53;;;;;;;26.17;8.30;;;7.70;99.90;;;;;;4992075;28;20054;-71
2022/01/27 09:46:23;;;;;;;25.65;7.88;;;7.80;99.90;;;;;;4982034;28;20052;-72
2022/01/27 09:48:51;;;;;;;20.63;8.38;;;7.90;99.90;;;;;;4987949;28;20120;-72
2022/01/27 09:53:52;;;;;;;23.92;8.00;;;7.90;99.90;;;;;;4986440;28;20298;-72
2022/01/27 09:56:19;;;;;;;18.75;6.60;;;8.00;99.90;;;;;;4984090;28;20081;-72
2022/01/27 09:58:45;;;;;;;19.70;5.93;;;8.00;99.90;;;;;;4992011;28;20068;-71
2022/01/27 10:01:10;;;;;;;22.05;7.55;;;8.00;99.90;;;;;;4983422;28;20038;-71
2022/01/27 10:03:58;;;;;;;18.80;5.90;;;8.20;99.90;;;;;;4985138;28;20045;-71
2022/01/27 10:06:32;;;;;;;16.05;6.00;;;8.20;99.90;;;;;;4987734;28;20501;-71
2022/01/27 10:09:12;;;;;;;18.92;6.45;;;8.20;99.90;;;;;;4985344;28;20132;-71
2022/01/27 10:11:38;;;;;;;23.77;6.22;;;8.20;99.90;;;;;;5003957;28;20046;-71
2022/01/27 10:14:25;;;;;;;20.00;5.72;;;8.20;99.90;;;;;;4986725;28;20049;-72
2022/01/27 10:16:55;;;;;;;14.52;6.05;;;8.20;99.90;;;;;;4989593;28;20366;-72
2022/01/27 10:19:22;;;;;;;20.35;6.20;;;8.20;99.90;;;;;;4990958;28;20038;-73
2022/01/27 10:21:49;;;;;;;15.98;5.90;;;8.30;99.90;;;;;;4987830;28;20647;-73
2022/01/27 10:24:22;;;;;;;18.42;6.20;;;8.30;99.90;;;;;;4981968;28;20541;-72
2022/01/27 10:27:15;;;;;;;17.90;5.53;;;8.30;99.90;;;;;;4987520;28;20120;-72
2022/01/27 10:29:51;;;;;;;22.38;5.25;;;8.30;99.90;;;;;;5002327;28;20439;-72
2022/01/27 10:32:17;;;;;;;22.27;5.28;;;8.30;99.90;;;;;;4994868;28;20266;-72
2022/01/27 10:35:00;;;;;;;13.88;4.78;;;8.30;99.90;;;;;;4988213;28;20030;-72
2022/01/27 10:37:26;;;;;;;16.00;5.13;;;8.40;99.90;;;;;;4991089;28;20041;-72
2022/01/27 10:39:52;;;;;;;15.60;6.28;;;8.40;99.90;;;;;;4991719;28;20038;-72
2022/01/27 10:42:22;;;;;;;19.10;5.47;;;8.40;99.90;;;;;;4977941;28;20046;-73
2022/01/27 10:44:55;;;;;;;17.88;5.22;;;8.50;99.90;;;;;;4989885;28;20490;-72
2022/01/27 10:47:28;;;;;;;16.52;4.47;;;8.40;99.90;;;;;;4989203;28;20506;-72
2022/01/27 10:54:59;;;;;;;14.52;5.10;;;9.10;99.90;;;;;;4984101;28;20043;-73
2022/01/27 10:57:26;;;;;;;15.35;3.85;;;8.60;99.90;;;;;;4983396;28;20055;-73
2022/01/27 11:00:10;;;;;;;25.73;5.88;;;9.00;99.90;;;;;;4990368;28;20099;-73
2022/01/27 11:03:02;;;;;;;15.18;4.55;;;8.70;99.90;;;;;;5002798;28;20417;-73
2022/01/27 11:05:30;;;;;;;18.77;4.38;;;8.70;99.90;;;;;;4986954;28;20117;-73
2022/01/27 11:07:57;;;;;;;13.23;5.28;;;9.00;99.90;;;;;;4990809;28;20041;-72
2022/01/27 11:10:22;;;;;;;16.33;5.00;;;8.90;99.90;;;;;;4969824;28;20041;-72
2022/01/27 11:12:50;;;;;;;18.35;4.75;;;8.70;99.90;;;;;;4985288;28;20377;-73
2022/01/27 11:15:17;;;;;;;19.08;4.45;;;8.90;99.90;;;;;;4984810;28;20037;-71
2022/01/27 11:17:45;;;;;;;16.30;5.00;;;8.60;99.90;;;;;;4987376;28;20037;-71
2022/01/27 11:25:56;;;;;;;20.98;4.70;;;8.80;99.90;;;;;;2922782;28;10002263;-70
2022/01/27 11:28:22;;;;;;;18.40;4.70;;;9.20;99.90;;;;;;5004814;28;20136;-71
2022/01/27 11:30:58;;;;;;;15.75;4.47;;;9.10;99.90;;;;;;4988131;28;20042;-72
2022/01/27 11:33:32;;;;;;;23.70;5.47;;;8.80;99.90;;;;;;4979716;28;20038;-71
2022/01/27 11:36:07;;;;;;;13.45;4.22;;;9.10;99.90;;;;;;4986712;28;20078;-72
2022/01/27 11:38:33;;;;;;;23.00;4.82;;;8.80;99.90;;;;;;4988472;28;20049;-71
2022/01/27 11:40:59;;;;;;;13.68;3.88;;;8.80;99.90;;;;;;4988656;28;20053;-74
2022/01/27 11:43:34;;;;;;;21.08;5.13;;;8.90;99.90;;;;;;4977673;28;20540;-74
2022/01/27 11:46:15;;;;;;;13.85;3.55;;;8.80;99.90;;;;;;4984016;28;20131;-72
2022/01/27 11:48:41;;;;;;;20.13;4.47;;;8.80;99.90;;;;;;5000456;28;20045;-72
2022/01/27 11:51:12;;;;;;;19.88;6.55;;;8.80;99.90;;;;;;4987455;28;20037;-72
2022/01/27 11:53:40;;;;;;;15.05;4.30;;;8.80;99.90;;;;;;4985626;28;20045;-72
2022/01/27 11:56:23;;;;;;;16.13;4.00;;;9.40;99.90;;;;;;5002575;28;20112;-72
2022/01/27 11:58:50;;;;;;;17.55;4.35;;;8.90;99.90;;;;;;4992556;28;20037;-72
2022/01/27 12:01:17;;;;;;;16.17;4.93;;;9.20;99.90;;;;;;4985745;28;20124;-72
2022/01/27 12:04:06;;;;;;;25.08;4.05;;;8.90;99.90;;;;;;4965074;28;20038;-72
2022/01/27 12:07:02;;;;;;;20.50;4.03;;;8.90;99.90;;;;;;4986056;28;20100;-72
2022/01/27 12:09:30;;;;;;;13.30;3.33;;;9.00;99.90;;;;;;4985089;28;20053;-72
2022/01/27 12:12:24;;;;;;;16.42;4.53;;;9.20;99.90;;;;;;5003967;28;20076;-72
2022/01/27 12:14:56;;;;;;;23.35;4.05;;;9.00;99.90;;;;;;4981814;28;20129;-72
2022/01/27 12:17:23;;;;;;;14.10;3.60;;;9.50;99.90;;;;;;5002274;28;20127;-72
2022/01/27 12:19:57;;;;;;;16.92;3.63;;;9.30;99.90;;;;;;4985898;28;20103;-72
2022/01/27 12:22:51;;;;;;;17.55;4.18;;;9.10;99.90;;;;;;5003944;28;20539;-72
2022/01/27 12:25:18;;;;;;;17.33;4.75;;;10.00;99.90;;;;;;4977519;28;20056;-72
2022/01/27 12:27:52;;;;;;;17.98;4.95;;;9.40;99.90;;;;;;4985847;28;20418;-72
2022/01/27 12:30:18;;;;;;;14.90;3.65;;;9.10;99.90;;;;;;4980947;28;20125;-73
2022/01/27 12:32:45;;;;;;;18.60;3.65;;;9.10;99.90;;;;;;4992253;28;20038;-72
2022/01/27 12:35:14;;;;;;;18.10;5.28;;;9.00;99.90;;;;;;4986146;28;20096;-72
2022/01/27 12:37:41;;;;;;;14.57;4.05;;;9.10;99.90;;;;;;4986648;28;20053;-72
2022/01/27 12:40:33;;;;;;;19.73;4.43;;;9.00;99.90;;;;;;4999605;28;20076;-72
2022/01/27 12:43:03;;;;;;;22.48;4.05;;;9.00;99.90;;;;;;4985517;28;20038;-72
2022/01/27 12:45:34;;;;;;;17.33;4.68;;;8.90;99.90;;;;;;4990521;28;20046;-72
2022/01/27 12:48:06;;;;;;;23.70;4.15;;;8.90;99.90;;;;;;4972391;28;20046;-72
2022/01/27 12:50:35;;;;;;;16.15;3.70;;;8.90;99.90;;;;;;5003888;28;20133;-72
2022/01/27 12:53:07;;;;;;;19.85;5.32;;;8.80;99.90;;;;;;4977617;28;20126;-73
2022/01/27 12:55:35;;;;;;;16.30;3.63;;;8.90;99.90;;;;;;4985766;28;20545;-72
2022/01/27 12:58:07;;;;;;;19.38;4.32;;;9.50;99.90;;;;;;5005363;28;20096;-72
2022/01/27 13:00:39;;;;;;;19.05;4.60;;;8.80;99.90;;;;;;4972549;28;20449;-73
2022/01/27 13:03:06;;;;;;;23.30;7.55;;;8.80;99.90;;;;;;5002650;28;20052;-72
2022/01/27 13:05:36;;;;;;;15.82;3.65;;;8.80;99.90;;;;;;4983647;28;20042;-72
2022/01/27 13:08:09;;;;;;;15.02;3.92;;;8.80;99.90;;;;;;4971508;28;20568;-72
2022/01/27 13:10:35;;;;;;;14.77;3.88;;;8.80;99.90;;;;;;4982808;28;20469;-72
2022/01/27 13:13:15;;;;;;;22.33;5.00;;;8.80;99.90;;;;;;4980122;28;20474;-72
2022/01/27 13:15:41;;;;;;;23.77;5.28;;;8.80;99.90;;;;;;4986890;28;20394;-72
2022/01/27 13:18:23;;;;;;;21.13;3.42;;;8.80;99.90;;;;;;4986472;28;20046;-72
2022/01/27 13:20:54;;;;;;;23.92;4.93;;;8.80;99.90;;;;;;4988266;28;20050;-72
2022/01/27 13:23:32;;;;;;;22.15;4.32;;;8.90;99.90;;;;;;4990977;28;20057;-72
2022/01/27 13:26:03;;;;;;;18.33;3.92;;;9.00;99.90;;;;;;4985201;28;20445;-72
2022/01/27 13:28:32;;;;;;;;;;;8.80;99.90;;;;;;4996089;28;20072;-72
2022/01/27 13:31:10;;;;;;;19.35;3.88;;;8.90;99.90;;;;;;4974382;28;19921;-72
2022/01/27 13:33:37;;;;;;;15.50;3.00;;;8.90;99.90;;;;;;4985164;28;20489;-72
2022/01/27 13:36:03;;;;;;;18.27;3.90;;;8.90;99.90;;;;;;4987267;28;20124;-72
2022/01/27 13:38:50;;;;;;;18.10;2.83;;;8.90;99.90;;;;;;4975318;28;20053;-71
2022/01/27 13:41:16;;;;;;;17.92;4.97;;;8.90;99.90;;;;;;4989840;28;20125;-71
2022/01/27 13:43:44;;;;;;;18.60;4.30;;;9.10;99.90;;;;;;5002099;28;20378;-71
2022/01/27 13:46:12;;;;;;;16.55;3.25;;;9.20;99.90;;;;;;4974136;28;20045;-71
2022/01/27 13:48:46;;;;;;;18.92;3.85;;;8.90;99.90;;;;;;4975603;28;20104;-72
2022/01/27 13:51:21;;;;;;;22.50;3.55;;;8.90;99.90;;;;;;4972387;28;20041;-72